sensor_id;sensor_type;location;lat;lon;timestamp;temperature;humidity
4501;DHT22;2263;54.654;9.410;2023-08-06T00:00:43;19.10;84.70
4501;DHT22;2263;54.654;9.410;2023-08-06T00:03:11;19.10;84.80
4501;DHT22;2263;54.654;9.410;2023-08-06T00:05:42;19.00;84.50
4501;DHT22;2263;54.654;9.410;2023-08-06T00:08:10;19.00;84.20
4501;DHT22;2263;54.654;9.410;2023-08-06T00:10:39;19.00;84.30
4501;DHT22;2263;54.654;9.410;2023-08-06T00:13:08;19.00;84.20
4501;DHT22;2263;54.654;9.410;2023-08-06T00:15:35;18.90;84.20
4501;DHT22;2263;54.654;9.410;2023-08-06T00:18:03;18.90;84.60
4501;DHT22;2263;54.654;9.410;2023-08-06T00:20:31;18.90;84.30
4501;DHT22;2263;54.654;9.410;2023-08-06T00:22:58;18.90;85.00
4501;DHT22;2263;54.654;9.410;2023-08-06T00:25:26;19.00;84.40
4501;DHT22;2263;54.654;9.410;2023-08-06T00:27:53;18.90;84.20
4501;DHT22;2263;54.654;9.410;2023-08-06T00:30:21;18.90;84.10
4501;DHT22;2263;54.654;9.410;2023-08-06T00:32:49;18.90;84.40
4501;DHT22;2263;54.654;9.410;2023-08-06T00:35:16;18.90;84.60
4501;DHT22;2263;54.654;9.410;2023-08-06T00:37:44;18.90;84.60
4501;DHT22;2263;54.654;9.410;2023-08-06T00:40:12;18.90;84.50
4501;DHT22;2263;54.654;9.410;2023-08-06T00:42:40;18.90;84.50
4501;DHT22;2263;54.654;9.410;2023-08-06T00:45:07;18.80;84.20
4501;DHT22;2263;54.654;9.410;2023-08-06T00:47:35;18.80;84.20
4501;DHT22;2263;54.654;9.410;2023-08-06T00:50:03;18.80;84.30
4501;DHT22;2263;54.654;9.410;2023-08-06T00:52:31;18.80;84.30
4501;DHT22;2263;54.654;9.410;2023-08-06T00:54:59;18.80;85.10
4501;DHT22;2263;54.654;9.410;2023-08-06T00:57:26;18.80;84.30
4501;DHT22;2263;54.654;9.410;2023-08-06T00:59:55;18.80;84.50
4501;DHT22;2263;54.654;9.410;2023-08-06T01:02:23;18.80;84.30
4501;DHT22;2263;54.654;9.410;2023-08-06T01:04:50;18.80;84.40
4501;DHT22;2263;54.654;9.410;2023-08-06T01:16:09;18.70;84.30
4501;DHT22;2263;54.654;9.410;2023-08-06T01:18:37;18.70;84.60
4501;DHT22;2263;54.654;9.410;2023-08-06T01:21:06;18.70;84.50
4501;DHT22;2263;54.654;9.410;2023-08-06T01:23:33;18.70;84.40
4501;DHT22;2263;54.654;9.410;2023-08-06T01:29:18;18.60;84.60
4501;DHT22;2263;54.654;9.410;2023-08-06T01:31:51;18.70;84.50
4501;DHT22;2263;54.654;9.410;2023-08-06T01:34:32;18.70;84.50
4501;DHT22;2263;54.654;9.410;2023-08-06T01:37:01;18.60;84.60
4501;DHT22;2263;54.654;9.410;2023-08-06T01:39:33;18.60;84.70
4501;DHT22;2263;54.654;9.410;2023-08-06T01:42:01;18.60;84.60
4501;DHT22;2263;54.654;9.410;2023-08-06T01:44:28;18.60;84.50
4501;DHT22;2263;54.654;9.410;2023-08-06T01:46:56;18.60;84.70
4501;DHT22;2263;54.654;9.410;2023-08-06T01:49:24;18.60;84.50
4501;DHT22;2263;54.654;9.410;2023-08-06T01:51:51;18.60;84.70
4501;DHT22;2263;54.654;9.410;2023-08-06T01:54:20;18.60;84.60
4501;DHT22;2263;54.654;9.410;2023-08-06T01:56:47;18.60;84.60
4501;DHT22;2263;54.654;9.410;2023-08-06T01:59:15;18.50;84.70
4501;DHT22;2263;54.654;9.410;2023-08-06T02:01:42;18.50;84.60
4501;DHT22;2263;54.654;9.410;2023-08-06T02:04:10;18.60;84.70
4501;DHT22;2263;54.654;9.410;2023-08-06T02:06:38;18.60;84.80
4501;DHT22;2263;54.654;9.410;2023-08-06T02:09:05;18.60;84.70
4501;DHT22;2263;54.654;9.410;2023-08-06T02:11:35;18.50;84.70
4501;DHT22;2263;54.654;9.410;2023-08-06T02:14:03;18.50;84.60
4501;DHT22;2263;54.654;9.410;2023-08-06T02:16:30;18.50;84.90
4501;DHT22;2263;54.654;9.410;2023-08-06T02:18:58;18.50;85.00
4501;DHT22;2263;54.654;9.410;2023-08-06T02:21:26;18.50;84.80
4501;DHT22;2263;54.654;9.410;2023-08-06T02:23:54;18.40;84.60
4501;DHT22;2263;54.654;9.410;2023-08-06T02:26:22;18.50;84.80
4501;DHT22;2263;54.654;9.410;2023-08-06T02:28:50;18.40;84.70
4501;DHT22;2263;54.654;9.410;2023-08-06T02:31:17;18.50;84.90
4501;DHT22;2263;54.654;9.410;2023-08-06T02:33:45;18.40;84.80
4501;DHT22;2263;54.654;9.410;2023-08-06T02:36:12;18.40;84.90
4501;DHT22;2263;54.654;9.410;2023-08-06T02:38:40;18.40;84.80
4501;DHT22;2263;54.654;9.410;2023-08-06T02:41:08;18.40;84.80
4501;DHT22;2263;54.654;9.410;2023-08-06T02:43:35;18.40;85.10
4501;DHT22;2263;54.654;9.410;2023-08-06T02:46:03;18.40;85.00
4501;DHT22;2263;54.654;9.410;2023-08-06T02:48:31;18.30;85.00
4501;DHT22;2263;54.654;9.410;2023-08-06T02:50:59;18.30;85.10
4501;DHT22;2263;54.654;9.410;2023-08-06T02:53:27;18.30;85.00
4501;DHT22;2263;54.654;9.410;2023-08-06T02:55:54;18.30;85.00
4501;DHT22;2263;54.654;9.410;2023-08-06T02:58:22;18.30;85.00
4501;DHT22;2263;54.654;9.410;2023-08-06T03:03:28;18.30;85.00
4501;DHT22;2263;54.654;9.410;2023-08-06T03:05:56;18.30;84.90
4501;DHT22;2263;54.654;9.410;2023-08-06T03:08:23;18.30;84.90
4501;DHT22;2263;54.654;9.410;2023-08-06T03:10:51;18.30;85.20
4501;DHT22;2263;54.654;9.410;2023-08-06T03:13:20;18.30;85.60
4501;DHT22;2263;54.654;9.410;2023-08-06T03:15:55;18.30;85.00
4501;DHT22;2263;54.654;9.410;2023-08-06T03:18:23;18.20;85.60
4501;DHT22;2263;54.654;9.410;2023-08-06T03:20:50;18.20;85.00
4501;DHT22;2263;54.654;9.410;2023-08-06T03:23:18;18.20;84.90
4501;DHT22;2263;54.654;9.410;2023-08-06T03:25:46;18.20;85.00
4501;DHT22;2263;54.654;9.410;2023-08-06T03:28:14;18.20;85.10
4501;DHT22;2263;54.654;9.410;2023-08-06T03:30:41;18.20;85.10
4501;DHT22;2263;54.654;9.410;2023-08-06T03:33:09;18.20;85.20
4501;DHT22;2263;54.654;9.410;2023-08-06T03:35:37;18.20;85.20
4501;DHT22;2263;54.654;9.410;2023-08-06T03:38:04;18.20;85.20
4501;DHT22;2263;54.654;9.410;2023-08-06T03:40:32;18.20;85.10
4501;DHT22;2263;54.654;9.410;2023-08-06T03:43:02;18.20;85.40
4501;DHT22;2263;54.654;9.410;2023-08-06T03:45:29;18.20;85.20
4501;DHT22;2263;54.654;9.410;2023-08-06T03:47:57;18.10;85.10
4501;DHT22;2263;54.654;9.410;2023-08-06T03:50:25;18.10;85.00
4501;DHT22;2263;54.654;9.410;2023-08-06T03:52:52;18.10;85.30
4501;DHT22;2263;54.654;9.410;2023-08-06T03:55:20;18.10;85.10
4501;DHT22;2263;54.654;9.410;2023-08-06T03:57:48;18.10;85.30
4501;DHT22;2263;54.654;9.410;2023-08-06T04:00:15;18.10;85.30
4501;DHT22;2263;54.654;9.410;2023-08-06T04:02:43;18.10;85.40
4501;DHT22;2263;54.654;9.410;2023-08-06T04:05:11;18.10;85.30
4501;DHT22;2263;54.654;9.410;2023-08-06T04:07:39;18.10;85.30
4501;DHT22;2263;54.654;9.410;2023-08-06T04:10:07;18.10;85.50
4501;DHT22;2263;54.654;9.410;2023-08-06T04:12:35;18.10;85.20
4501;DHT22;2263;54.654;9.410;2023-08-06T04:15:06;18.10;85.30
4501;DHT22;2263;54.654;9.410;2023-08-06T04:17:33;18.10;85.60
4501;DHT22;2263;54.654;9.410;2023-08-06T04:20:01;18.00;85.50
4501;DHT22;2263;54.654;9.410;2023-08-06T04:22:29;18.10;85.70
4501;DHT22;2263;54.654;9.410;2023-08-06T04:24:57;18.00;85.30
4501;DHT22;2263;54.654;9.410;2023-08-06T04:27:25;18.00;85.50
4501;DHT22;2263;54.654;9.410;2023-08-06T04:29:53;18.00;85.40
4501;DHT22;2263;54.654;9.410;2023-08-06T04:32:21;18.00;85.50
4501;DHT22;2263;54.654;9.410;2023-08-06T04:34:48;18.00;85.50
4501;DHT22;2263;54.654;9.410;2023-08-06T04:37:16;18.00;85.50
4501;DHT22;2263;54.654;9.410;2023-08-06T04:39:43;18.00;85.60
4501;DHT22;2263;54.654;9.410;2023-08-06T04:42:11;18.00;85.60
4501;DHT22;2263;54.654;9.410;2023-08-06T04:44:39;18.00;85.60
4501;DHT22;2263;54.654;9.410;2023-08-06T04:47:06;18.00;85.80
4501;DHT22;2263;54.654;9.410;2023-08-06T04:49:34;18.00;85.70
4501;DHT22;2263;54.654;9.410;2023-08-06T04:52:02;18.00;85.80
4501;DHT22;2263;54.654;9.410;2023-08-06T04:54:30;18.00;85.80
4501;DHT22;2263;54.654;9.410;2023-08-06T04:56:57;18.00;86.00
4501;DHT22;2263;54.654;9.410;2023-08-06T04:59:25;18.00;85.80
4501;DHT22;2263;54.654;9.410;2023-08-06T05:01:52;18.00;86.00
4501;DHT22;2263;54.654;9.410;2023-08-06T05:04:21;18.00;86.10
4501;DHT22;2263;54.654;9.410;2023-08-06T05:06:48;17.90;85.90
4501;DHT22;2263;54.654;9.410;2023-08-06T05:09:16;17.90;85.90
4501;DHT22;2263;54.654;9.410;2023-08-06T05:11:43;18.00;86.20
4501;DHT22;2263;54.654;9.410;2023-08-06T05:14:11;18.00;86.30
4501;DHT22;2263;54.654;9.410;2023-08-06T05:16:39;18.00;86.20
4501;DHT22;2263;54.654;9.410;2023-08-06T05:19:07;17.90;86.10
4501;DHT22;2263;54.654;9.410;2023-08-06T05:21:34;18.00;86.40
4501;DHT22;2263;54.654;9.410;2023-08-06T05:24:02;17.90;86.20
4501;DHT22;2263;54.654;9.410;2023-08-06T05:26:30;17.90;86.30
4501;DHT22;2263;54.654;9.410;2023-08-06T05:28:57;17.90;86.30
4501;DHT22;2263;54.654;9.410;2023-08-06T05:31:25;17.90;86.40
4501;DHT22;2263;54.654;9.410;2023-08-06T05:33:52;17.90;86.40
4501;DHT22;2263;54.654;9.410;2023-08-06T05:36:20;17.90;86.50
4501;DHT22;2263;54.654;9.410;2023-08-06T05:38:48;17.90;86.60
4501;DHT22;2263;54.654;9.410;2023-08-06T05:41:16;17.90;86.50
4501;DHT22;2263;54.654;9.410;2023-08-06T05:43:43;17.90;86.60
4501;DHT22;2263;54.654;9.410;2023-08-06T05:46:11;17.90;86.70
4501;DHT22;2263;54.654;9.410;2023-08-06T05:48:39;17.90;86.60
4501;DHT22;2263;54.654;9.410;2023-08-06T05:51:06;17.90;86.60
4501;DHT22;2263;54.654;9.410;2023-08-06T05:53:34;17.90;86.60
4501;DHT22;2263;54.654;9.410;2023-08-06T05:56:02;17.90;86.70
4501;DHT22;2263;54.654;9.410;2023-08-06T05:58:30;17.90;86.80
4501;DHT22;2263;54.654;9.410;2023-08-06T06:00:57;17.90;86.80
4501;DHT22;2263;54.654;9.410;2023-08-06T06:03:25;17.90;86.90
4501;DHT22;2263;54.654;9.410;2023-08-06T06:05:53;17.90;87.00
4501;DHT22;2263;54.654;9.410;2023-08-06T06:08:20;17.90;87.00
4501;DHT22;2263;54.654;9.410;2023-08-06T06:10:48;17.90;86.90
4501;DHT22;2263;54.654;9.410;2023-08-06T06:13:15;17.90;86.80
4501;DHT22;2263;54.654;9.410;2023-08-06T06:15:43;17.90;87.10
4501;DHT22;2263;54.654;9.410;2023-08-06T06:18:11;17.90;87.10
4501;DHT22;2263;54.654;9.410;2023-08-06T06:20:38;17.80;87.00
4501;DHT22;2263;54.654;9.410;2023-08-06T06:23:06;17.80;87.00
4501;DHT22;2263;54.654;9.410;2023-08-06T06:25:33;17.90;87.20
4501;DHT22;2263;54.654;9.410;2023-08-06T06:28:01;17.90;87.30
4501;DHT22;2263;54.654;9.410;2023-08-06T06:30:29;17.90;87.10
4501;DHT22;2263;54.654;9.410;2023-08-06T06:32:57;17.80;87.00
4501;DHT22;2263;54.654;9.410;2023-08-06T06:35:24;17.90;87.10
4501;DHT22;2263;54.654;9.410;2023-08-06T06:37:52;17.90;87.10
4501;DHT22;2263;54.654;9.410;2023-08-06T06:40:20;17.90;87.10
4501;DHT22;2263;54.654;9.410;2023-08-06T06:42:47;17.80;87.00
4501;DHT22;2263;54.654;9.410;2023-08-06T06:45:15;17.80;87.00
4501;DHT22;2263;54.654;9.410;2023-08-06T06:47:43;17.80;87.00
4501;DHT22;2263;54.654;9.410;2023-08-06T06:50:10;17.80;87.10
4501;DHT22;2263;54.654;9.410;2023-08-06T06:52:38;17.90;87.10
4501;DHT22;2263;54.654;9.410;2023-08-06T06:55:06;17.80;87.10
4501;DHT22;2263;54.654;9.410;2023-08-06T06:57:34;17.90;87.10
4501;DHT22;2263;54.654;9.410;2023-08-06T07:00:02;17.80;87.00
4501;DHT22;2263;54.654;9.410;2023-08-06T07:02:32;17.90;87.10
4501;DHT22;2263;54.654;9.410;2023-08-06T07:05:00;17.80;87.20
4501;DHT22;2263;54.654;9.410;2023-08-06T07:07:28;17.80;87.30
4501;DHT22;2263;54.654;9.410;2023-08-06T07:09:55;17.90;87.40
4501;DHT22;2263;54.654;9.410;2023-08-06T07:12:23;17.90;87.30
4501;DHT22;2263;54.654;9.410;2023-08-06T07:14:51;17.90;87.40
4501;DHT22;2263;54.654;9.410;2023-08-06T07:17:19;17.90;87.40
4501;DHT22;2263;54.654;9.410;2023-08-06T07:19:46;17.90;87.60
4501;DHT22;2263;54.654;9.410;2023-08-06T07:22:14;17.90;88.30
4501;DHT22;2263;54.654;9.410;2023-08-06T07:24:41;17.90;87.90
4501;DHT22;2263;54.654;9.410;2023-08-06T07:27:09;17.90;87.90
4501;DHT22;2263;54.654;9.410;2023-08-06T07:29:37;17.90;88.40
4501;DHT22;2263;54.654;9.410;2023-08-06T07:32:07;17.90;88.60
4501;DHT22;2263;54.654;9.410;2023-08-06T07:34:35;17.90;88.50
4501;DHT22;2263;54.654;9.410;2023-08-06T07:37:02;17.90;88.20
4501;DHT22;2263;54.654;9.410;2023-08-06T07:39:30;17.90;88.20
4501;DHT22;2263;54.654;9.410;2023-08-06T07:41:58;17.90;88.50
4501;DHT22;2263;54.654;9.410;2023-08-06T07:44:26;17.90;88.30
4501;DHT22;2263;54.654;9.410;2023-08-06T07:46:54;17.90;88.20
4501;DHT22;2263;54.654;9.410;2023-08-06T07:49:22;17.90;88.30
4501;DHT22;2263;54.654;9.410;2023-08-06T07:51:49;17.90;88.20
4501;DHT22;2263;54.654;9.410;2023-08-06T07:54:19;17.90;88.20
4501;DHT22;2263;54.654;9.410;2023-08-06T07:56:47;17.90;88.10
4501;DHT22;2263;54.654;9.410;2023-08-06T07:59:14;17.90;88.10
4501;DHT22;2263;54.654;9.410;2023-08-06T08:01:42;17.90;88.10
4501;DHT22;2263;54.654;9.410;2023-08-06T08:04:10;17.90;88.10
4501;DHT22;2263;54.654;9.410;2023-08-06T08:06:37;17.90;88.20
4501;DHT22;2263;54.654;9.410;2023-08-06T08:09:05;17.90;88.20
4501;DHT22;2263;54.654;9.410;2023-08-06T08:11:32;17.90;88.10
4501;DHT22;2263;54.654;9.410;2023-08-06T08:14:00;17.90;88.10
4501;DHT22;2263;54.654;9.410;2023-08-06T08:16:28;17.90;88.10
4501;DHT22;2263;54.654;9.410;2023-08-06T08:18:55;17.90;88.10
4501;DHT22;2263;54.654;9.410;2023-08-06T08:21:23;17.90;88.20
4501;DHT22;2263;54.654;9.410;2023-08-06T08:23:54;17.90;88.20
4501;DHT22;2263;54.654;9.410;2023-08-06T08:26:21;17.90;88.80
4501;DHT22;2263;54.654;9.410;2023-08-06T08:28:49;17.90;88.30
4501;DHT22;2263;54.654;9.410;2023-08-06T08:31:17;17.90;88.30
4501;DHT22;2263;54.654;9.410;2023-08-06T08:33:44;17.90;88.40
4501;DHT22;2263;54.654;9.410;2023-08-06T08:36:12;17.90;88.60
4501;DHT22;2263;54.654;9.410;2023-08-06T08:38:40;17.90;88.70
4501;DHT22;2263;54.654;9.410;2023-08-06T08:41:09;17.90;88.90
4501;DHT22;2263;54.654;9.410;2023-08-06T08:43:38;17.90;88.80
4501;DHT22;2263;54.654;9.410;2023-08-06T08:46:09;17.90;88.80
4501;DHT22;2263;54.654;9.410;2023-08-06T08:48:37;18.00;88.80
4501;DHT22;2263;54.654;9.410;2023-08-06T08:51:06;17.90;88.90
4501;DHT22;2263;54.654;9.410;2023-08-06T08:53:35;17.90;88.60
4501;DHT22;2263;54.654;9.410;2023-08-06T08:56:06;18.00;88.80
4501;DHT22;2263;54.654;9.410;2023-08-06T08:58:34;18.00;88.90
4501;DHT22;2263;54.654;9.410;2023-08-06T09:01:01;18.00;88.90
4501;DHT22;2263;54.654;9.410;2023-08-06T09:03:29;18.00;88.80
4501;DHT22;2263;54.654;9.410;2023-08-06T09:05:58;18.00;88.80
4501;DHT22;2263;54.654;9.410;2023-08-06T09:08:30;18.00;89.00
4501;DHT22;2263;54.654;9.410;2023-08-06T09:11:00;18.00;88.80
4501;DHT22;2263;54.654;9.410;2023-08-06T09:13:29;18.00;89.00
4501;DHT22;2263;54.654;9.410;2023-08-06T09:15:56;18.00;88.90
4501;DHT22;2263;54.654;9.410;2023-08-06T09:18:27;18.00;89.10
4501;DHT22;2263;54.654;9.410;2023-08-06T09:20:57;18.00;89.10
4501;DHT22;2263;54.654;9.410;2023-08-06T09:23:32;18.00;89.10
4501;DHT22;2263;54.654;9.410;2023-08-06T09:26:00;18.00;89.00
4501;DHT22;2263;54.654;9.410;2023-08-06T09:28:39;18.00;89.20
4501;DHT22;2263;54.654;9.410;2023-08-06T09:31:09;18.00;89.10
4501;DHT22;2263;54.654;9.410;2023-08-06T09:33:40;18.00;89.10
4501;DHT22;2263;54.654;9.410;2023-08-06T09:36:11;18.00;89.10
4501;DHT22;2263;54.654;9.410;2023-08-06T09:38:40;18.00;89.20
4501;DHT22;2263;54.654;9.410;2023-08-06T09:41:08;18.00;89.20
4501;DHT22;2263;54.654;9.410;2023-08-06T09:43:42;18.00;89.30
4501;DHT22;2263;54.654;9.410;2023-08-06T09:46:13;18.00;89.20
4501;DHT22;2263;54.654;9.410;2023-08-06T09:48:48;18.00;89.30
4501;DHT22;2263;54.654;9.410;2023-08-06T09:51:17;18.00;89.30
4501;DHT22;2263;54.654;9.410;2023-08-06T09:53:47;18.00;89.20
4501;DHT22;2263;54.654;9.410;2023-08-06T09:56:17;18.00;89.20
4501;DHT22;2263;54.654;9.410;2023-08-06T09:58:47;18.00;89.10
4501;DHT22;2263;54.654;9.410;2023-08-06T10:01:17;18.00;89.20
4501;DHT22;2263;54.654;9.410;2023-08-06T10:03:47;18.00;89.10
4501;DHT22;2263;54.654;9.410;2023-08-06T10:06:15;18.00;89.10
4501;DHT22;2263;54.654;9.410;2023-08-06T10:08:42;18.00;89.20
4501;DHT22;2263;54.654;9.410;2023-08-06T10:11:10;18.10;89.10
4501;DHT22;2263;54.654;9.410;2023-08-06T10:13:39;18.10;89.10
4501;DHT22;2263;54.654;9.410;2023-08-06T10:16:07;18.00;89.00
4501;DHT22;2263;54.654;9.410;2023-08-06T10:18:39;18.10;89.00
4501;DHT22;2263;54.654;9.410;2023-08-06T10:21:10;18.10;89.00
4501;DHT22;2263;54.654;9.410;2023-08-06T10:23:40;18.10;89.10
4501;DHT22;2263;54.654;9.410;2023-08-06T10:26:08;18.10;89.10
4501;DHT22;2263;54.654;9.410;2023-08-06T10:28:37;18.10;89.00
4501;DHT22;2263;54.654;9.410;2023-08-06T10:31:06;18.10;88.90
4501;DHT22;2263;54.654;9.410;2023-08-06T10:33:41;18.10;88.90
4501;DHT22;2263;54.654;9.410;2023-08-06T10:36:10;18.10;88.90
4501;DHT22;2263;54.654;9.410;2023-08-06T10:38:46;18.10;89.00
4501;DHT22;2263;54.654;9.410;2023-08-06T10:41:28;18.10;89.00
4501;DHT22;2263;54.654;9.410;2023-08-06T10:44:06;18.20;89.10
4501;DHT22;2263;54.654;9.410;2023-08-06T10:46:36;18.20;89.00
4501;DHT22;2263;54.654;9.410;2023-08-06T10:49:04;18.20;89.30
4501;DHT22;2263;54.654;9.410;2023-08-06T10:51:34;18.20;89.30
4501;DHT22;2263;54.654;9.410;2023-08-06T10:54:02;18.20;89.20
4501;DHT22;2263;54.654;9.410;2023-08-06T10:56:30;18.20;89.10
4501;DHT22;2263;54.654;9.410;2023-08-06T10:58:58;18.20;89.10
4501;DHT22;2263;54.654;9.410;2023-08-06T11:01:29;18.30;89.10
4501;DHT22;2263;54.654;9.410;2023-08-06T11:04:02;18.30;89.10
4501;DHT22;2263;54.654;9.410;2023-08-06T11:06:29;18.30;89.20
4501;DHT22;2263;54.654;9.410;2023-08-06T11:08:57;18.30;89.10
4501;DHT22;2263;54.654;9.410;2023-08-06T11:11:25;18.30;89.00
4501;DHT22;2263;54.654;9.410;2023-08-06T11:13:53;18.30;89.00
4501;DHT22;2263;54.654;9.410;2023-08-06T11:16:23;18.30;89.00
4501;DHT22;2263;54.654;9.410;2023-08-06T11:18:54;18.30;88.90
4501;DHT22;2263;54.654;9.410;2023-08-06T11:21:23;18.30;88.90
4501;DHT22;2263;54.654;9.410;2023-08-06T11:23:54;18.30;88.90
4501;DHT22;2263;54.654;9.410;2023-08-06T11:26:23;18.30;88.70
4501;DHT22;2263;54.654;9.410;2023-08-06T11:28:51;18.30;88.60
4501;DHT22;2263;54.654;9.410;2023-08-06T11:31:23;18.30;88.60
4501;DHT22;2263;54.654;9.410;2023-08-06T11:33:51;18.30;88.60
4501;DHT22;2263;54.654;9.410;2023-08-06T11:36:39;18.30;88.60
4501;DHT22;2263;54.654;9.410;2023-08-06T11:39:08;18.40;88.60
4501;DHT22;2263;54.654;9.410;2023-08-06T11:41:37;18.40;88.60
4501;DHT22;2263;54.654;9.410;2023-08-06T11:44:05;18.40;88.60
4501;DHT22;2263;54.654;9.410;2023-08-06T11:46:56;18.40;88.50
4501;DHT22;2263;54.654;9.410;2023-08-06T11:49:46;18.40;88.40
4501;DHT22;2263;54.654;9.410;2023-08-06T11:52:22;18.40;88.50
4501;DHT22;2263;54.654;9.410;2023-08-06T11:57:36;18.40;88.40
4501;DHT22;2263;54.654;9.410;2023-08-06T12:00:07;18.40;88.40
4501;DHT22;2263;54.654;9.410;2023-08-06T12:02:35;18.40;88.40
4501;DHT22;2263;54.654;9.410;2023-08-06T12:05:12;18.40;88.40
4501;DHT22;2263;54.654;9.410;2023-08-06T12:07:56;18.40;88.30
4501;DHT22;2263;54.654;9.410;2023-08-06T12:10:25;18.40;88.30
4501;DHT22;2263;54.654;9.410;2023-08-06T12:12:54;18.40;88.30
4501;DHT22;2263;54.654;9.410;2023-08-06T12:15:22;18.40;88.30
4501;DHT22;2263;54.654;9.410;2023-08-06T12:17:51;18.50;88.40
4501;DHT22;2263;54.654;9.410;2023-08-06T12:20:18;18.50;88.30
4501;DHT22;2263;54.654;9.410;2023-08-06T12:22:46;18.50;88.40
4501;DHT22;2263;54.654;9.410;2023-08-06T12:25:14;18.50;88.20
4501;DHT22;2263;54.654;9.410;2023-08-06T12:27:43;18.50;88.10
4501;DHT22;2263;54.654;9.410;2023-08-06T12:30:12;18.50;88.20
4501;DHT22;2263;54.654;9.410;2023-08-06T12:32:40;18.50;88.20
4501;DHT22;2263;54.654;9.410;2023-08-06T12:35:08;18.50;88.20
4501;DHT22;2263;54.654;9.410;2023-08-06T12:37:36;18.50;88.10
4501;DHT22;2263;54.654;9.410;2023-08-06T12:40:06;18.50;88.20
4501;DHT22;2263;54.654;9.410;2023-08-06T12:42:54;18.50;88.10
4501;DHT22;2263;54.654;9.410;2023-08-06T12:45:22;18.50;88.10
4501;DHT22;2263;54.654;9.410;2023-08-06T12:47:49;18.50;88.10
4501;DHT22;2263;54.654;9.410;2023-08-06T12:50:18;18.50;88.10
4501;DHT22;2263;54.654;9.410;2023-08-06T12:52:46;18.50;88.10
4501;DHT22;2263;54.654;9.410;2023-08-06T12:55:13;18.50;88.10
4501;DHT22;2263;54.654;9.410;2023-08-06T12:57:41;18.50;88.10
4501;DHT22;2263;54.654;9.410;2023-08-06T13:00:26;18.50;88.10
4501;DHT22;2263;54.654;9.410;2023-08-06T13:02:54;18.50;88.10
4501;DHT22;2263;54.654;9.410;2023-08-06T13:05:22;18.60;88.20
4501;DHT22;2263;54.654;9.410;2023-08-06T13:07:49;18.60;88.20
4501;DHT22;2263;54.654;9.410;2023-08-06T13:10:18;18.60;88.10
4501;DHT22;2263;54.654;9.410;2023-08-06T13:12:45;18.60;88.10
4501;DHT22;2263;54.654;9.410;2023-08-06T13:15:13;18.60;88.10
4501;DHT22;2263;54.654;9.410;2023-08-06T13:17:41;18.60;88.10
4501;DHT22;2263;54.654;9.410;2023-08-06T13:20:09;18.70;88.20
4501;DHT22;2263;54.654;9.410;2023-08-06T13:22:37;18.60;88.10
4501;DHT22;2263;54.654;9.410;2023-08-06T13:25:06;18.70;88.10
4501;DHT22;2263;54.654;9.410;2023-08-06T13:27:34;18.70;88.20
4501;DHT22;2263;54.654;9.410;2023-08-06T13:30:02;18.70;88.10
4501;DHT22;2263;54.654;9.410;2023-08-06T13:32:30;18.70;88.10
4501;DHT22;2263;54.654;9.410;2023-08-06T13:34:59;18.70;88.10
4501;DHT22;2263;54.654;9.410;2023-08-06T13:37:27;18.70;88.10
4501;DHT22;2263;54.654;9.410;2023-08-06T13:39:55;18.70;88.00
4501;DHT22;2263;54.654;9.410;2023-08-06T13:42:23;18.70;88.00
4501;DHT22;2263;54.654;9.410;2023-08-06T13:44:51;18.80;88.10
4501;DHT22;2263;54.654;9.410;2023-08-06T13:47:19;18.80;88.10
4501;DHT22;2263;54.654;9.410;2023-08-06T13:49:47;18.80;88.00
4501;DHT22;2263;54.654;9.410;2023-08-06T13:52:14;18.80;88.00
4501;DHT22;2263;54.654;9.410;2023-08-06T13:54:49;18.80;88.00
4501;DHT22;2263;54.654;9.410;2023-08-06T13:57:17;18.80;88.00
4501;DHT22;2263;54.654;9.410;2023-08-06T13:59:45;18.80;87.90
4501;DHT22;2263;54.654;9.410;2023-08-06T14:02:13;18.80;87.90
4501;DHT22;2263;54.654;9.410;2023-08-06T14:04:40;18.80;87.90
4501;DHT22;2263;54.654;9.410;2023-08-06T14:07:08;18.80;87.80
4501;DHT22;2263;54.654;9.410;2023-08-06T14:09:36;18.80;87.80
4501;DHT22;2263;54.654;9.410;2023-08-06T14:12:04;18.80;87.60
4501;DHT22;2263;54.654;9.410;2023-08-06T14:14:33;18.80;87.70
4501;DHT22;2263;54.654;9.410;2023-08-06T14:17:01;18.80;87.60
4501;DHT22;2263;54.654;9.410;2023-08-06T14:19:29;18.80;87.60
4501;DHT22;2263;54.654;9.410;2023-08-06T14:21:58;18.80;87.60
4501;DHT22;2263;54.654;9.410;2023-08-06T14:24:25;18.90;87.70
4501;DHT22;2263;54.654;9.410;2023-08-06T14:26:53;18.90;87.70
4501;DHT22;2263;54.654;9.410;2023-08-06T14:29:21;18.90;87.70
4501;DHT22;2263;54.654;9.410;2023-08-06T14:31:50;18.90;87.70
4501;DHT22;2263;54.654;9.410;2023-08-06T14:34:18;18.90;87.70
4501;DHT22;2263;54.654;9.410;2023-08-06T14:36:46;18.90;87.70
4501;DHT22;2263;54.654;9.410;2023-08-06T14:39:13;18.90;87.60
4501;DHT22;2263;54.654;9.410;2023-08-06T14:41:41;18.90;87.70
4501;DHT22;2263;54.654;9.410;2023-08-06T14:44:08;18.90;87.60
4501;DHT22;2263;54.654;9.410;2023-08-06T14:46:36;18.80;87.60
4501;DHT22;2263;54.654;9.410;2023-08-06T14:49:04;18.90;87.70
4501;DHT22;2263;54.654;9.410;2023-08-06T14:51:31;18.80;87.50
4501;DHT22;2263;54.654;9.410;2023-08-06T14:54:03;18.80;87.60
4501;DHT22;2263;54.654;9.410;2023-08-06T14:56:30;18.80;87.60
4501;DHT22;2263;54.654;9.410;2023-08-06T14:58:58;18.80;87.60
4501;DHT22;2263;54.654;9.410;2023-08-06T15:01:26;18.90;87.70
4501;DHT22;2263;54.654;9.410;2023-08-06T15:03:54;18.90;87.70
4501;DHT22;2263;54.654;9.410;2023-08-06T15:06:22;18.90;87.60
4501;DHT22;2263;54.654;9.410;2023-08-06T15:08:50;18.90;87.60
4501;DHT22;2263;54.654;9.410;2023-08-06T15:11:17;18.90;87.70
4501;DHT22;2263;54.654;9.410;2023-08-06T15:13:45;18.90;87.60
4501;DHT22;2263;54.654;9.410;2023-08-06T15:16:12;18.90;87.60
4501;DHT22;2263;54.654;9.410;2023-08-06T15:18:40;18.90;87.60
4501;DHT22;2263;54.654;9.410;2023-08-06T15:21:10;18.90;87.60
4501;DHT22;2263;54.654;9.410;2023-08-06T15:23:37;18.90;87.60
4501;DHT22;2263;54.654;9.410;2023-08-06T15:26:05;18.90;87.60
4501;DHT22;2263;54.654;9.410;2023-08-06T15:28:33;18.90;87.60
4501;DHT22;2263;54.654;9.410;2023-08-06T15:31:02;18.90;87.50
4501;DHT22;2263;54.654;9.410;2023-08-06T15:33:32;18.90;87.40
4501;DHT22;2263;54.654;9.410;2023-08-06T15:36:00;18.90;87.20
4501;DHT22;2263;54.654;9.410;2023-08-06T15:38:28;19.00;87.30
4501;DHT22;2263;54.654;9.410;2023-08-06T15:40:56;18.90;87.20
4501;DHT22;2263;54.654;9.410;2023-08-06T15:43:23;19.00;87.20
4501;DHT22;2263;54.654;9.410;2023-08-06T15:45:51;19.00;87.20
4501;DHT22;2263;54.654;9.410;2023-08-06T15:48:19;19.00;87.80
4501;DHT22;2263;54.654;9.410;2023-08-06T15:50:47;19.00;87.10
4501;DHT22;2263;54.654;9.410;2023-08-06T15:53:14;19.00;87.00
4501;DHT22;2263;54.654;9.410;2023-08-06T15:55:46;19.00;86.80
4501;DHT22;2263;54.654;9.410;2023-08-06T15:58:13;19.00;86.90
4501;DHT22;2263;54.654;9.410;2023-08-06T16:00:42;19.00;87.00
4501;DHT22;2263;54.654;9.410;2023-08-06T16:03:10;19.00;86.90
4501;DHT22;2263;54.654;9.410;2023-08-06T16:05:38;19.00;86.90
4501;DHT22;2263;54.654;9.410;2023-08-06T16:08:06;19.00;86.90
4501;DHT22;2263;54.654;9.410;2023-08-06T16:10:34;19.00;86.80
4501;DHT22;2263;54.654;9.410;2023-08-06T16:13:03;19.10;87.00
4501;DHT22;2263;54.654;9.410;2023-08-06T16:15:30;19.10;86.80
4501;DHT22;2263;54.654;9.410;2023-08-06T16:17:58;19.10;86.90
4501;DHT22;2263;54.654;9.410;2023-08-06T16:20:26;19.10;86.80
4501;DHT22;2263;54.654;9.410;2023-08-06T16:22:54;19.10;86.80
4501;DHT22;2263;54.654;9.410;2023-08-06T16:25:21;19.10;86.80
4501;DHT22;2263;54.654;9.410;2023-08-06T16:27:49;19.10;86.70